sensor_id;sensor_type;location;lat;lon;timestamp;temperature;humidity
59881;DHT22;45751;51.380;10.326;2023-03-01T00:01:20;-1.00;75.30
59881;DHT22;45751;51.380;10.326;2023-03-01T00:03:48;-1.00;75.50
59881;DHT22;45751;51.380;10.326;2023-03-01T00:06:15;-1.00;75.60
59881;DHT22;45751;51.380;10.326;2023-03-01T00:08:42;-1.10;75.70
59881;DHT22;45751;51.380;10.326;2023-03-01T00:11:21;-1.10;75.70
59881;DHT22;45751;51.380;10.326;2023-03-01T00:13:51;-1.10;77.10
59881;DHT22;45751;51.380;10.326;2023-03-01T00:16:22;-1.20;76.10
59881;DHT22;45751;51.380;10.326;2023-03-01T00:18:49;-1.20;76.10
59881;DHT22;45751;51.380;10.326;2023-03-01T00:21:17;-1.20;76.10
59881;DHT22;45751;51.380;10.326;2023-03-01T00:23:46;-1.20;76.10
59881;DHT22;45751;51.380;10.326;2023-03-01T00:26:17;-1.30;76.30
59881;DHT22;45751;51.380;10.326;2023-03-01T00:28:44;-1.30;76.60
59881;DHT22;45751;51.380;10.326;2023-03-01T00:31:14;-1.30;76.80
59881;DHT22;45751;51.380;10.326;2023-03-01T00:33:42;-1.30;77.10
59881;DHT22;45751;51.380;10.326;2023-03-01T00:36:10;-1.40;77.20
59881;DHT22;45751;51.380;10.326;2023-03-01T00:38:39;-1.40;78.70
59881;DHT22;45751;51.380;10.326;2023-03-01T00:41:09;-1.40;78.10
59881;DHT22;45751;51.380;10.326;2023-03-01T00:43:36;-1.40;78.50
59881;DHT22;45751;51.380;10.326;2023-03-01T00:46:07;-1.40;78.80
59881;DHT22;45751;51.380;10.326;2023-03-01T00:48:35;-1.40;79.00
59881;DHT22;45751;51.380;10.326;2023-03-01T00:53:36;-1.40;79.60
59881;DHT22;45751;51.380;10.326;2023-03-01T00:56:05;-1.40;80.00
59881;DHT22;45751;51.380;10.326;2023-03-01T00:58:33;-1.50;80.40
59881;DHT22;45751;51.380;10.326;2023-03-01T01:01:00;-1.50;80.90
59881;DHT22;45751;51.380;10.326;2023-03-01T01:03:28;-1.60;81.30
59881;DHT22;45751;51.380;10.326;2023-03-01T01:05:54;-1.60;81.40
59881;DHT22;45751;51.380;10.326;2023-03-01T01:08:21;-1.60;81.50
59881;DHT22;45751;51.380;10.326;2023-03-01T01:10:48;-1.60;81.70
59881;DHT22;45751;51.380;10.326;2023-03-01T01:13:15;-1.60;81.80
59881;DHT22;45751;51.380;10.326;2023-03-01T01:15:42;-1.60;82.00
59881;DHT22;45751;51.380;10.326;2023-03-01T01:18:09;-1.70;82.40
59881;DHT22;45751;51.380;10.326;2023-03-01T01:20:36;-1.60;82.50
59881;DHT22;45751;51.380;10.326;2023-03-01T01:23:05;-1.70;82.50
59881;DHT22;45751;51.380;10.326;2023-03-01T01:25:34;-1.70;82.70
59881;DHT22;45751;51.380;10.326;2023-03-01T01:28:02;-1.70;82.70
59881;DHT22;45751;51.380;10.326;2023-03-01T01:30:29;-1.80;82.70
59881;DHT22;45751;51.380;10.326;2023-03-01T01:32:56;-1.80;82.90
59881;DHT22;45751;51.380;10.326;2023-03-01T01:35:23;-1.80;82.70
59881;DHT22;45751;51.380;10.326;2023-03-01T01:37:50;-1.80;82.70
59881;DHT22;45751;51.380;10.326;2023-03-01T01:40:17;-1.90;82.90
59881;DHT22;45751;51.380;10.326;2023-03-01T01:42:46;-1.90;83.20
59881;DHT22;45751;51.380;10.326;2023-03-01T01:45:32;-1.90;83.60
59881;DHT22;45751;51.380;10.326;2023-03-01T01:48:06;-1.90;83.90
59881;DHT22;45751;51.380;10.326;2023-03-01T01:50:39;-1.90;83.80
59881;DHT22;45751;51.380;10.326;2023-03-01T01:53:12;-1.90;83.90
59881;DHT22;45751;51.380;10.326;2023-03-01T01:55:45;-2.00;83.90
59881;DHT22;45751;51.380;10.326;2023-03-01T01:58:17;-2.00;84.00
59881;DHT22;45751;51.380;10.326;2023-03-01T02:00:45;-2.00;84.40
59881;DHT22;45751;51.380;10.326;2023-03-01T02:03:32;-2.00;84.60
59881;DHT22;45751;51.380;10.326;2023-03-01T02:06:07;-2.00;84.60
59881;DHT22;45751;51.380;10.326;2023-03-01T02:08:39;-2.00;84.40
59881;DHT22;45751;51.380;10.326;2023-03-01T02:11:09;-2.00;84.10
59881;DHT22;45751;51.380;10.326;2023-03-01T02:13:37;-2.00;84.00
59881;DHT22;45751;51.380;10.326;2023-03-01T02:16:08;-2.00;84.30
59881;DHT22;45751;51.380;10.326;2023-03-01T02:18:37;-2.10;84.50
59881;DHT22;45751;51.380;10.326;2023-03-01T02:23:47;-2.10;84.90
59881;DHT22;45751;51.380;10.326;2023-03-01T02:26:33;-2.10;84.80
59881;DHT22;45751;51.380;10.326;2023-03-01T02:29:01;-2.10;84.70
59881;DHT22;45751;51.380;10.326;2023-03-01T02:31:28;-2.20;84.40
59881;DHT22;45751;51.380;10.326;2023-03-01T02:34:21;-2.20;84.50
59881;DHT22;45751;51.380;10.326;2023-03-01T02:36:59;-2.20;84.50
59881;DHT22;45751;51.380;10.326;2023-03-01T02:39:31;-2.20;84.70
59881;DHT22;45751;51.380;10.326;2023-03-01T02:42:01;-2.30;84.80
59881;DHT22;45751;51.380;10.326;2023-03-01T02:44:29;-2.30;85.30
59881;DHT22;45751;51.380;10.326;2023-03-01T02:46:56;-2.30;85.70
59881;DHT22;45751;51.380;10.326;2023-03-01T02:49:28;-2.30;86.10
59881;DHT22;45751;51.380;10.326;2023-03-01T02:52:22;-2.30;86.30
59881;DHT22;45751;51.380;10.326;2023-03-01T02:54:58;-2.30;86.60
59881;DHT22;45751;51.380;10.326;2023-03-01T02:57:28;-2.30;86.80
59881;DHT22;45751;51.380;10.326;2023-03-01T02:59:57;-2.30;86.90
59881;DHT22;45751;51.380;10.326;2023-03-01T03:02:27;-2.30;87.20
59881;DHT22;45751;51.380;10.326;2023-03-01T03:05:13;-2.30;87.50
59881;DHT22;45751;51.380;10.326;2023-03-01T03:07:43;-2.30;87.70
59881;DHT22;45751;51.380;10.326;2023-03-01T03:10:17;-2.30;87.70
59881;DHT22;45751;51.380;10.326;2023-03-01T03:12:51;-2.30;87.80
59881;DHT22;45751;51.380;10.326;2023-03-01T03:15:19;-2.30;88.20
59881;DHT22;45751;51.380;10.326;2023-03-01T03:17:47;-2.30;88.20
59881;DHT22;45751;51.380;10.326;2023-03-01T03:20:16;-2.30;88.40
59881;DHT22;45751;51.380;10.326;2023-03-01T03:22:47;-2.30;88.30
59881;DHT22;45751;51.380;10.326;2023-03-01T03:25:15;-2.30;88.00
59881;DHT22;45751;51.380;10.326;2023-03-01T03:27:44;-2.30;87.80
59881;DHT22;45751;51.380;10.326;2023-03-01T03:30:13;-2.30;87.70
59881;DHT22;45751;51.380;10.326;2023-03-01T03:32:42;-2.30;87.70
59881;DHT22;45751;51.380;10.326;2023-03-01T03:35:27;-2.40;88.00
59881;DHT22;45751;51.380;10.326;2023-03-01T03:38:01;-2.40;88.20
59881;DHT22;45751;51.380;10.326;2023-03-01T03:40:39;-2.30;88.00
59881;DHT22;45751;51.380;10.326;2023-03-01T03:43:09;-2.40;88.10
59881;DHT22;45751;51.380;10.326;2023-03-01T03:45:36;-2.40;88.30
59881;DHT22;45751;51.380;10.326;2023-03-01T03:48:05;-2.40;88.30
59881;DHT22;45751;51.380;10.326;2023-03-01T03:50:32;-2.40;88.30
59881;DHT22;45751;51.380;10.326;2023-03-01T03:53:04;-2.40;88.30
59881;DHT22;45751;51.380;10.326;2023-03-01T03:55:32;-2.40;88.30
59881;DHT22;45751;51.380;10.326;2023-03-01T03:58:02;-2.40;88.30
59881;DHT22;45751;51.380;10.326;2023-03-01T04:00:41;-2.40;88.30
59881;DHT22;45751;51.380;10.326;2023-03-01T04:03:10;-2.40;88.50
59881;DHT22;45751;51.380;10.326;2023-03-01T04:05:39;-2.40;88.50
59881;DHT22;45751;51.380;10.326;2023-03-01T04:08:07;-2.40;88.50
59881;DHT22;45751;51.380;10.326;2023-03-01T04:10:40;-2.40;88.70
59881;DHT22;45751;51.380;10.326;2023-03-01T04:13:10;-2.40;88.60
59881;DHT22;45751;51.380;10.326;2023-03-01T04:15:38;-2.40;88.70
59881;DHT22;45751;51.380;10.326;2023-03-01T04:18:06;-2.50;88.50
59881;DHT22;45751;51.380;10.326;2023-03-01T04:20:35;-2.50;88.30
59881;DHT22;45751;51.380;10.326;2023-03-01T04:23:07;-2.50;88.40
59881;DHT22;45751;51.380;10.326;2023-03-01T04:25:42;-2.50;88.50
59881;DHT22;45751;51.380;10.326;2023-03-01T04:28:09;-2.50;88.40
59881;DHT22;45751;51.380;10.326;2023-03-01T04:30:38;-2.60;88.50
59881;DHT22;45751;51.380;10.326;2023-03-01T04:33:06;-2.60;88.40
59881;DHT22;45751;51.380;10.326;2023-03-01T04:35:34;-2.60;88.60
59881;DHT22;45751;51.380;10.326;2023-03-01T04:38:03;-2.60;88.40
59881;DHT22;45751;51.380;10.326;2023-03-01T04:40:29;-2.60;88.50
59881;DHT22;45751;51.380;10.326;2023-03-01T04:42:56;-2.60;88.70
59881;DHT22;45751;51.380;10.326;2023-03-01T04:45:24;-2.60;88.70
59881;DHT22;45751;51.380;10.326;2023-03-01T04:47:51;-2.60;88.40
59881;DHT22;45751;51.380;10.326;2023-03-01T04:50:20;-2.60;88.20
59881;DHT22;45751;51.380;10.326;2023-03-01T04:52:48;-2.70;88.20
59881;DHT22;45751;51.380;10.326;2023-03-01T04:55:15;-2.70;88.50
59881;DHT22;45751;51.380;10.326;2023-03-01T04:57:42;-2.70;88.40
59881;DHT22;45751;51.380;10.326;2023-03-01T05:00:11;-2.80;88.10
59881;DHT22;45751;51.380;10.326;2023-03-01T05:02:54;-2.80;88.10
59881;DHT22;45751;51.380;10.326;2023-03-01T05:05:31;-2.80;88.40
59881;DHT22;45751;51.380;10.326;2023-03-01T05:08:01;-2.90;88.60
59881;DHT22;45751;51.380;10.326;2023-03-01T05:10:29;-2.90;88.70
59881;DHT22;45751;51.380;10.326;2023-03-01T05:12:57;-2.90;88.80
59881;DHT22;45751;51.380;10.326;2023-03-01T05:15:26;-2.90;88.70
59881;DHT22;45751;51.380;10.326;2023-03-01T05:17:55;-3.00;88.50
59881;DHT22;45751;51.380;10.326;2023-03-01T05:20:22;-3.00;89.60
59881;DHT22;45751;51.380;10.326;2023-03-01T05:22:50;-3.00;88.50
59881;DHT22;45751;51.380;10.326;2023-03-01T05:25:17;-3.00;88.70
59881;DHT22;45751;51.380;10.326;2023-03-01T05:27:44;-3.00;88.70
59881;DHT22;45751;51.380;10.326;2023-03-01T05:30:11;-3.00;88.50
59881;DHT22;45751;51.380;10.326;2023-03-01T05:32:43;-3.10;88.60
59881;DHT22;45751;51.380;10.326;2023-03-01T05:35:12;-3.10;88.70
59881;DHT22;45751;51.380;10.326;2023-03-01T05:37:42;-3.10;89.00
59881;DHT22;45751;51.380;10.326;2023-03-01T05:40:14;-3.10;89.10
59881;DHT22;45751;51.380;10.326;2023-03-01T05:42:45;-3.10;89.40
59881;DHT22;45751;51.380;10.326;2023-03-01T05:45:13;-3.10;89.80
59881;DHT22;45751;51.380;10.326;2023-03-01T05:47:41;-3.10;89.90
59881;DHT22;45751;51.380;10.326;2023-03-01T05:50:11;-3.20;90.00
59881;DHT22;45751;51.380;10.326;2023-03-01T05:52:38;-3.10;90.00
59881;DHT22;45751;51.380;10.326;2023-03-01T05:55:05;-3.10;89.80
59881;DHT22;45751;51.380;10.326;2023-03-01T05:57:32;-3.20;89.60
59881;DHT22;45751;51.380;10.326;2023-03-01T05:59:59;-3.20;89.80
59881;DHT22;45751;51.380;10.326;2023-03-01T06:02:26;-3.20;90.10
59881;DHT22;45751;51.380;10.326;2023-03-01T06:04:54;-3.20;90.20
59881;DHT22;45751;51.380;10.326;2023-03-01T06:07:21;-3.20;90.30
59881;DHT22;45751;51.380;10.326;2023-03-01T06:09:47;-3.20;90.30
59881;DHT22;45751;51.380;10.326;2023-03-01T06:12:14;-3.20;90.40
59881;DHT22;45751;51.380;10.326;2023-03-01T06:14:41;-3.20;90.40
59881;DHT22;45751;51.380;10.326;2023-03-01T06:17:08;-3.20;90.40
59881;DHT22;45751;51.380;10.326;2023-03-01T06:19:35;-3.20;90.40
59881;DHT22;45751;51.380;10.326;2023-03-01T06:22:01;-3.30;90.60
59881;DHT22;45751;51.380;10.326;2023-03-01T06:24:28;-3.30;90.70
59881;DHT22;45751;51.380;10.326;2023-03-01T06:26:55;-3.20;90.80
59881;DHT22;45751;51.380;10.326;2023-03-01T06:29:22;-3.30;90.90
59881;DHT22;45751;51.380;10.326;2023-03-01T06:31:49;-3.20;91.10
59881;DHT22;45751;51.380;10.326;2023-03-01T06:34:16;-3.20;91.20
59881;DHT22;45751;51.380;10.326;2023-03-01T06:36:43;-3.20;91.20
59881;DHT22;45751;51.380;10.326;2023-03-01T06:39:10;-3.20;91.30
59881;DHT22;45751;51.380;10.326;2023-03-01T06:41:37;-3.10;91.30
59881;DHT22;45751;51.380;10.326;2023-03-01T06:44:04;-3.10;91.30
59881;DHT22;45751;51.380;10.326;2023-03-01T06:46:31;-3.10;91.20
59881;DHT22;45751;51.380;10.326;2023-03-01T06:48:58;-3.10;91.40
59881;DHT22;45751;51.380;10.326;2023-03-01T06:51:25;-3.10;91.40
59881;DHT22;45751;51.380;10.326;2023-03-01T06:53:52;-3.10;91.50
59881;DHT22;45751;51.380;10.326;2023-03-01T06:56:19;-3.10;91.60
59881;DHT22;45751;51.380;10.326;2023-03-01T06:58:46;-3.10;91.60
59881;DHT22;45751;51.380;10.326;2023-03-01T07:01:13;-3.00;91.70
59881;DHT22;45751;51.380;10.326;2023-03-01T07:03:40;-3.00;91.70
59881;DHT22;45751;51.380;10.326;2023-03-01T07:06:07;-3.00;91.70
59881;DHT22;45751;51.380;10.326;2023-03-01T07:08:33;-3.00;91.70
59881;DHT22;45751;51.380;10.326;2023-03-01T07:11:01;-3.00;91.90
59881;DHT22;45751;51.380;10.326;2023-03-01T07:13:29;-3.00;92.20
59881;DHT22;45751;51.380;10.326;2023-03-01T07:15:56;-2.90;92.40
59881;DHT22;45751;51.380;10.326;2023-03-01T07:18:23;-2.90;92.40
59881;DHT22;45751;51.380;10.326;2023-03-01T07:20:50;-2.80;92.40
59881;DHT22;45751;51.380;10.326;2023-03-01T07:23:17;-2.80;92.40
59881;DHT22;45751;51.380;10.326;2023-03-01T07:25:44;-2.80;92.40
59881;DHT22;45751;51.380;10.326;2023-03-01T07:28:10;-2.80;92.40
59881;DHT22;45751;51.380;10.326;2023-03-01T07:30:37;-2.70;92.40
59881;DHT22;45751;51.380;10.326;2023-03-01T07:33:04;-2.70;92.40
59881;DHT22;45751;51.380;10.326;2023-03-01T07:35:31;-2.70;92.50
59881;DHT22;45751;51.380;10.326;2023-03-01T07:38:00;-2.60;92.50
59881;DHT22;45751;51.380;10.326;2023-03-01T07:40:26;-2.60;92.40
59881;DHT22;45751;51.380;10.326;2023-03-01T07:42:57;-2.60;92.40
59881;DHT22;45751;51.380;10.326;2023-03-01T07:45:25;-2.50;92.50
59881;DHT22;45751;51.380;10.326;2023-03-01T07:47:53;-2.50;92.50
59881;DHT22;45751;51.380;10.326;2023-03-01T07:50:21;-2.40;92.60
59881;DHT22;45751;51.380;10.326;2023-03-01T07:52:49;-2.40;92.60
59881;DHT22;45751;51.380;10.326;2023-03-01T07:55:16;-2.30;92.80
59881;DHT22;45751;51.380;10.326;2023-03-01T07:57:43;-2.30;93.10
59881;DHT22;45751;51.380;10.326;2023-03-01T08:00:11;-2.30;93.10
59881;DHT22;45751;51.380;10.326;2023-03-01T08:02:38;-2.30;93.20
59881;DHT22;45751;51.380;10.326;2023-03-01T08:05:07;-2.20;93.10
59881;DHT22;45751;51.380;10.326;2023-03-01T08:07:34;-2.20;92.90
59881;DHT22;45751;51.380;10.326;2023-03-01T08:10:01;-2.10;93.00
59881;DHT22;45751;51.380;10.326;2023-03-01T08:12:29;-2.10;93.00
59881;DHT22;45751;51.380;10.326;2023-03-01T08:14:55;-2.00;92.90
59881;DHT22;45751;51.380;10.326;2023-03-01T08:17:23;-2.00;92.90
59881;DHT22;45751;51.380;10.326;2023-03-01T08:19:50;-1.90;92.90
59881;DHT22;45751;51.380;10.326;2023-03-01T08:22:17;-1.90;92.70
59881;DHT22;45751;51.380;10.326;2023-03-01T08:24:44;-1.90;92.60
59881;DHT22;45751;51.380;10.326;2023-03-01T08:27:11;-1.80;92.60
59881;DHT22;45751;51.380;10.326;2023-03-01T08:29:38;-1.80;92.60
59881;DHT22;45751;51.380;10.326;2023-03-01T08:32:05;-1.70;92.60
59881;DHT22;45751;51.380;10.326;2023-03-01T08:34:32;-1.70;92.70
59881;DHT22;45751;51.380;10.326;2023-03-01T08:37:02;-1.60;92.70
59881;DHT22;45751;51.380;10.326;2023-03-01T08:39:28;-1.60;92.70
59881;DHT22;45751;51.380;10.326;2023-03-01T08:41:56;-1.60;92.70
59881;DHT22;45751;51.380;10.326;2023-03-01T08:44:23;-1.50;92.80
59881;DHT22;45751;51.380;10.326;2023-03-01T08:46:51;-1.50;93.10
59881;DHT22;45751;51.380;10.326;2023-03-01T08:49:20;-1.40;93.40
59881;DHT22;45751;51.380;10.326;2023-03-01T08:51:47;-1.40;93.30
59881;DHT22;45751;51.380;10.326;2023-03-01T08:54:17;-1.30;93.10
59881;DHT22;45751;51.380;10.326;2023-03-01T08:56:45;-1.20;92.80
59881;DHT22;45751;51.380;10.326;2023-03-01T08:59:13;-1.20;92.70
59881;DHT22;45751;51.380;10.326;2023-03-01T09:01:40;-1.20;92.60
59881;DHT22;45751;51.380;10.326;2023-03-01T09:04:10;-1.10;92.50
59881;DHT22;45751;51.380;10.326;2023-03-01T09:06:37;-1.10;92.40
59881;DHT22;45751;51.380;10.326;2023-03-01T09:09:05;-1.00;92.30
59881;DHT22;45751;51.380;10.326;2023-03-01T09:11:33;-1.00;92.20
59881;DHT22;45751;51.380;10.326;2023-03-01T09:13:59;-0.90;92.00
59881;DHT22;45751;51.380;10.326;2023-03-01T09:16:26;-0.80;92.00
59881;DHT22;45751;51.380;10.326;2023-03-01T09:18:54;-0.80;92.00
59881;DHT22;45751;51.380;10.326;2023-03-01T09:21:23;-0.70;92.00
59881;DHT22;45751;51.380;10.326;2023-03-01T09:24:15;-0.70;91.90
59881;DHT22;45751;51.380;10.326;2023-03-01T09:26:42;-0.60;91.70
59881;DHT22;45751;51.380;10.326;2023-03-01T09:29:09;-0.60;91.50
59881;DHT22;45751;51.380;10.326;2023-03-01T09:31:36;-0.50;91.20
59881;DHT22;45751;51.380;10.326;2023-03-01T09:34:03;-0.50;90.90
59881;DHT22;45751;51.380;10.326;2023-03-01T09:36:30;-0.50;90.80
59881;DHT22;45751;51.380;10.326;2023-03-01T09:38:58;-0.40;90.70
59881;DHT22;45751;51.380;10.326;2023-03-01T09:42:14;-0.30;90.70
59881;DHT22;45751;51.380;10.326;2023-03-01T09:46:51;-0.30;89.80
59881;DHT22;45751;51.380;10.326;2023-03-01T09:49:24;-0.20;89.60
59881;DHT22;45751;51.380;10.326;2023-03-01T09:54:26;-0.10;89.60
59881;DHT22;45751;51.380;10.326;2023-03-01T10:00:13;-0.10;88.60
59881;DHT22;45751;51.380;10.326;2023-03-01T10:02:51;0.00;88.20
59881;DHT22;45751;51.380;10.326;2023-03-01T10:10:38;0.10;87.60
59881;DHT22;45751;51.380;10.326;2023-03-01T10:13:36;0.20;87.20
59881;DHT22;45751;51.380;10.326;2023-03-01T10:16:18;0.20;86.90
59881;DHT22;45751;51.380;10.326;2023-03-01T10:18:53;0.20;86.90
59881;DHT22;45751;51.380;10.326;2023-03-01T10:21:21;0.30;86.90
59881;DHT22;45751;51.380;10.326;2023-03-01T10:23:52;0.30;86.70
59881;DHT22;45751;51.380;10.326;2023-03-01T10:29:10;0.30;86.00
59881;DHT22;45751;51.380;10.326;2023-03-01T10:36:40;0.40;85.40
59881;DHT22;45751;51.380;10.326;2023-03-01T10:39:33;0.50;85.50
59881;DHT22;45751;51.380;10.326;2023-03-01T10:42:09;0.50;85.40
59881;DHT22;45751;51.380;10.326;2023-03-01T10:44:47;0.50;85.00
59881;DHT22;45751;51.380;10.326;2023-03-01T10:47:21;0.60;84.60
59881;DHT22;45751;51.380;10.326;2023-03-01T10:49:59;0.60;84.80
59881;DHT22;45751;51.380;10.326;2023-03-01T10:52:33;0.60;84.70
59881;DHT22;45751;51.380;10.326;2023-03-01T10:55:24;0.70;84.20
59881;DHT22;45751;51.380;10.326;2023-03-01T10:57:49;0.70;84.10
59881;DHT22;45751;51.380;10.326;2023-03-01T11:00:24;0.70;83.70
59881;DHT22;45751;51.380;10.326;2023-03-01T11:03:03;0.80;83.50
59881;DHT22;45751;51.380;10.326;2023-03-01T11:05:31;0.80;82.90
59881;DHT22;45751;51.380;10.326;2023-03-01T11:08:01;0.90;83.40
59881;DHT22;45751;51.380;10.326;2023-03-01T11:10:33;0.90;83.70
59881;DHT22;45751;51.380;10.326;2023-03-01T11:13:14;1.00;82.80
59881;DHT22;45751;51.380;10.326;2023-03-01T11:15:42;1.00;81.70
59881;DHT22;45751;51.380;10.326;2023-03-01T11:18:35;1.10;81.10
59881;DHT22;45751;51.380;10.326;2023-03-01T11:21:15;1.20;81.10
59881;DHT22;45751;51.380;10.326;2023-03-01T11:23:43;1.30;80.80
59881;DHT22;45751;51.380;10.326;2023-03-01T11:26:13;1.30;80.10
59881;DHT22;45751;51.380;10.326;2023-03-01T11:28:42;1.40;78.00
59881;DHT22;45751;51.380;10.326;2023-03-01T11:31:11;1.40;77.80
59881;DHT22;45751;51.380;10.326;2023-03-01T11:33:54;1.50;78.20
59881;DHT22;45751;51.380;10.326;2023-03-01T11:37:09;1.60;77.60
59881;DHT22;45751;51.380;10.326;2023-03-01T11:39:46;1.70;77.00
59881;DHT22;45751;51.380;10.326;2023-03-01T11:45:11;1.80;76.30
59881;DHT22;45751;51.380;10.326;2023-03-01T11:47:51;1.90;76.70
59881;DHT22;45751;51.380;10.326;2023-03-01T11:50:46;2.00;75.10
59881;DHT22;45751;51.380;10.326;2023-03-01T12:10:23;2.60;72.40
59881;DHT22;45751;51.380;10.326;2023-03-01T12:19:04;2.90;71.10
59881;DHT22;45751;51.380;10.326;2023-03-01T12:27:35;3.30;70.90
59881;DHT22;45751;51.380;10.326;2023-03-01T12:41:32;3.90;68.40
59881;DHT22;45751;51.380;10.326;2023-03-01T12:50:02;4.30;66.90
59881;DHT22;45751;51.380;10.326;2023-03-01T12:52:52;4.40;66.80
59881;DHT22;45751;51.380;10.326;2023-03-01T12:55:35;4.60;66.90
59881;DHT22;45751;51.380;10.326;2023-03-01T13:00:50;4.80;64.60
59881;DHT22;45751;51.380;10.326;2023-03-01T13:06:32;5.20;64.70
59881;DHT22;45751;51.380;10.326;2023-03-01T13:15:35;5.60;63.20
59881;DHT22;45751;51.380;10.326;2023-03-01T13:20:54;5.80;62.10
59881;DHT22;45751;51.380;10.326;2023-03-01T13:33:59;6.40;58.80
59881;DHT22;45751;51.380;10.326;2023-03-01T13:44:32;6.90;57.60
59881;DHT22;45751;51.380;10.326;2023-03-01T13:54:59;7.40;56.80
59881;DHT22;45751;51.380;10.326;2023-03-01T13:57:34;7.50;56.60
59881;DHT22;45751;51.380;10.326;2023-03-01T14:00:04;7.60;56.30
59881;DHT22;45751;51.380;10.326;2023-03-01T14:02:41;7.80;56.00
59881;DHT22;45751;51.380;10.326;2023-03-01T14:05:09;8.00;55.70
59881;DHT22;45751;51.380;10.326;2023-03-01T14:07:39;8.10;55.10
59881;DHT22;45751;51.380;10.326;2023-03-01T14:10:11;8.20;54.50
59881;DHT22;45751;51.380;10.326;2023-03-01T14:19:05;8.60;53.60
59881;DHT22;45751;51.380;10.326;2023-03-01T14:22:23;8.70;53.20
59881;DHT22;45751;51.380;10.326;2023-03-01T14:24:58;8.80;52.70
59881;DHT22;45751;51.380;10.326;2023-03-01T14:27:28;8.90;52.50
59881;DHT22;45751;51.380;10.326;2023-03-01T14:30:02;9.00;51.80
59881;DHT22;45751;51.380;10.326;2023-03-01T14:32:31;9.10;51.40
59881;DHT22;45751;51.380;10.326;2023-03-01T14:35:00;9.20;51.10
59881;DHT22;45751;51.380;10.326;2023-03-01T14:37:30;9.20;50.90
59881;DHT22;45751;51.380;10.326;2023-03-01T14:39:59;9.30;50.70
59881;DHT22;45751;51.380;10.326;2023-03-01T14:42:30;9.40;50.30
59881;DHT22;45751;51.380;10.326;2023-03-01T14:45:00;9.40;49.60
59881;DHT22;45751;51.380;10.326;2023-03-01T14:47:35;9.40;48.90
59881;DHT22;45751;51.380;10.326;2023-03-01T14:50:30;9.40;48.50
59881;DHT22;45751;51.380;10.326;2023-03-01T14:53:03;9.40;48.20
59881;DHT22;45751;51.380;10.326;2023-03-01T14:55:41;9.50;48.20
59881;DHT22;45751;51.380;10.326;2023-03-01T14:58:12;9.50;47.20
59881;DHT22;45751;51.380;10.326;2023-03-01T15:00:44;9.50;47.30
59881;DHT22;45751;51.380;10.326;2023-03-01T15:03:24;9.60;47.90
59881;DHT22;45751;51.380;10.326;2023-03-01T15:05:52;9.50;46.90
59881;DHT22;45751;51.380;10.326;2023-03-01T15:08:23;9.50;46.90
59881;DHT22;45751;51.380;10.326;2023-03-01T15:11:04;9.60;46.50
59881;DHT22;45751;51.380;10.326;2023-03-01T15:13:35;9.60;45.90
59881;DHT22;45751;51.380;10.326;2023-03-01T15:18:48;9.60;45.40
59881;DHT22;45751;51.380;10.326;2023-03-01T15:21:24;9.50;45.30
59881;DHT22;45751;51.380;10.326;2023-03-01T15:24:06;9.50;45.10
59881;DHT22;45751;51.380;10.326;2023-03-01T15:26:41;9.50;44.70
59881;DHT22;45751;51.380;10.326;2023-03-01T15:29:29;9.50;44.20
59881;DHT22;45751;51.380;10.326;2023-03-01T15:32:01;9.40;44.20
59881;DHT22;45751;51.380;10.326;2023-03-01T15:34:37;9.50;44.50
59881;DHT22;45751;51.380;10.326;2023-03-01T15:37:06;9.50;44.60
59881;DHT22;45751;51.380;10.326;2023-03-01T15:39:56;9.50;44.50
59881;DHT22;45751;51.380;10.326;2023-03-01T15:47:58;9.60;44.30
59881;DHT22;45751;51.380;10.326;2023-03-01T15:50:33;9.50;44.10
59881;DHT22;45751;51.380;10.326;2023-03-01T15:53:05;9.50;44.30
59881;DHT22;45751;51.380;10.326;2023-03-01T15:55:33;9.50;44.40
59881;DHT22;45751;51.380;10.326;2023-03-01T15:58:14;9.50;45.80
59881;DHT22;45751;51.380;10.326;2023-03-01T16:00:42;9.50;44.60
59881;DHT22;45751;51.380;10.326;2023-03-01T16:03:26;9.50;44.40
59881;DHT22;45751;51.380;10.326;2023-03-01T16:05:53;9.50;44.30
59881;DHT22;45751;51.380;10.326;2023-03-01T16:08:20;9.40;44.40
59881;DHT22;45751;51.380;10.326;2023-03-01T16:10:47;9.40;44.30
59881;DHT22;45751;51.380;10.326;2023-03-01T16:13:16;9.40;44.40
59881;DHT22;45751;51.380;10.326;2023-03-01T16:15:44;9.40;44.20
59881;DHT22;45751;51.380;10.326;2023-03-01T16:18:11;9.30;44.10
59881;DHT22;45751;51.380;10.326;2023-03-01T16:20:39;9.20;44.00
59881;DHT22;45751;51.380;10.326;2023-03-01T16:23:08;9.20;43.90
59881;DHT22;45751;51.380;10.326;2023-03-01T16:25:35;9.10;44.10
59881;DHT22;45751;51.380;10.326;2023-03-01T16:28:02;9.00;44.10
59881;DHT22;45751;51.380;10.326;2023-03-01T16:30:35;9.00;44.00
59881;DHT22;45751;51.380;10.326;2023-03-01T16:33:03;9.00;44.00
59881;DHT22;45751;51.380;10.326;2023-03-01T16:35:50;8.80;44.10
59881;DHT22;45751;51.380;10.326;2023-03-01T16:38:17;8.70;44.30
59881;DHT22;45751;51.380;10.326;2023-03-01T16:40:48;8.60;44.30
59881;DHT22;45751;51.380;10.326;2023-03-01T16:43:15;8.50;44.40
59881;DHT22;45751;51.380;10.326;2023-03-01T16:45:43;8.40;45.20
59881;DHT22;45751;51.380;10.326;2023-03-01T16:48:12;8.30;45.20
59881;DHT22;45751;51.380;10.326;2023-03-01T16:50:39;8.20;45.10
59881;DHT22;45751;51.380;10.326;2023-03-01T16:53:06;7.90;45.00
59881;DHT22;45751;51.380;10.326;2023-03-01T16:55:33;7.80;45.60
59881;DHT22;45751;51.380;10.326;2023-03-01T16:58:01;7.60;45.90
59881;DHT22;45751;51.380;10.326;2023-03-01T17:00:28;7.50;46.20
59881;DHT22;45751;51.380;10.326;2023-03-01T17:02:55;7.30;46.60
59881;DHT22;45751;51.380;10.326;2023-03-01T17:05:25;7.20;46.80
59881;DHT22;45751;51.380;10.326;2023-03-01T17:07:52;7.00;47.20
59881;DHT22;45751;51.380;10.326;2023-03-01T17:10:22;6.90;47.50
59881;DHT22;45751;51.380;10.326;2023-03-01T17:12:49;6.70;47.60
59881;DHT22;45751;51.380;10.326;2023-03-01T17:15:17;6.60;48.00
59881;DHT22;45751;51.380;10.326;2023-03-01T17:17:44;6.50;48.20
59881;DHT22;45751;51.380;10.326;2023-03-01T17:20:11;6.40;48.60
59881;DHT22;45751;51.380;10.326;2023-03-01T17:22:38;6.30;48.90
59881;DHT22;45751;51.380;10.326;2023-03-01T17:25:08;6.20;49.30
59881;DHT22;45751;51.380;10.326;2023-03-01T17:27:37;6.10;50.90
59881;DHT22;45751;51.380;10.326;2023-03-01T17:30:05;6.10;49.90
59881;DHT22;45751;51.380;10.326;2023-03-01T17:32:33;5.90;50.10
59881;DHT22;45751;51.380;10.326;2023-03-01T17:35:00;5.90;50.50
59881;DHT22;45751;51.380;10.326;2023-03-01T17:37:27;5.80;50.60
59881;DHT22;45751;51.380;10.326;2023-03-01T17:39:54;5.70;50.90
59881;DHT22;45751;51.380;10.326;2023-03-01T17:42:21;5.70;51.40
59881;DHT22;45751;51.380;10.326;2023-03-01T17:44:48;5.60;51.50
59881;DHT22;45751;51.380;10.326;2023-03-01T17:47:15;5.60;51.70
59881;DHT22;45751;51.380;10.326;2023-03-01T17:49:59;5.50;52.00
59881;DHT22;45751;51.380;10.326;2023-03-01T17:52:26;5.40;52.30
59881;DHT22;45751;51.380;10.326;2023-03-01T17:55:47;5.30;52.50
59881;DHT22;45751;51.380;10.326;2023-03-01T17:58:32;5.30;52.90